createdAt,value
2023-04-19T00:00:08.478Z,10.43
2023-04-19T00:02:36.245Z,10.35
2023-04-19T00:05:03.958Z,10.32
2023-04-19T00:07:31.117Z,10.37
2023-04-19T00:09:58.059Z,10.33
2023-04-19T00:12:25.125Z,10.24
2023-04-19T00:14:52.097Z,10.31
2023-04-19T00:17:20.146Z,10.23
2023-04-19T00:19:47.778Z,10.13
2023-04-19T00:22:14.832Z,10.18
2023-04-19T00:24:41.818Z,10.17
2023-04-19T00:27:08.779Z,10.12
2023-04-19T00:29:35.827Z,10.11
2023-04-19T00:32:04.155Z,10.10
2023-04-19T00:34:31.118Z,10.08
2023-04-19T00:36:58.406Z,10.10
2023-04-19T00:39:25.436Z,10.02
2023-04-19T00:41:53.209Z,10.01
2023-04-19T00:44:20.190Z,9.95
2023-04-19T00:46:47.307Z,9.99
2023-04-19T00:49:14.571Z,9.96
2023-04-19T00:51:42.253Z,9.99
2023-04-19T00:54:09.518Z,9.98
2023-04-19T00:56:36.686Z,9.96
2023-04-19T00:59:04.097Z,9.97
2023-04-19T01:01:31.162Z,9.99
2023-04-19T01:03:58.507Z,9.99
2023-04-19T01:06:29.957Z,10.06
2023-04-19T01:08:57.334Z,10.07
2023-04-19T01:11:25.240Z,10.07
2023-04-19T01:13:52.711Z,10.08
2023-04-19T01:16:20.004Z,10.08
2023-04-19T01:18:47.048Z,10.13
2023-04-19T01:21:14.185Z,10.17
2023-04-19T01:23:41.185Z,10.18
2023-04-19T01:26:08.220Z,10.24
2023-04-19T01:28:35.228Z,10.23
2023-04-19T01:31:02.301Z,10.26
2023-04-19T01:33:29.408Z,10.29
2023-04-19T01:35:56.391Z,10.29
2023-04-19T01:38:23.344Z,10.28
2023-04-19T01:40:50.390Z,10.36
2023-04-19T01:43:18.714Z,10.38
2023-04-19T01:45:46.086Z,10.43
2023-04-19T01:48:13.102Z,10.46
2023-04-19T01:50:40.090Z,10.42
2023-04-19T01:53:07.085Z,10.54
2023-04-19T01:55:34.153Z,10.54
2023-04-19T01:58:01.228Z,10.51
2023-04-19T02:00:28.229Z,10.53
2023-04-19T02:02:55.332Z,10.62
2023-04-19T02:05:22.432Z,10.65
2023-04-19T02:07:49.407Z,10.60
2023-04-19T02:10:16.390Z,10.69
2023-04-19T02:12:43.445Z,10.64
2023-04-19T02:15:10.802Z,10.70
2023-04-19T02:17:38.831Z,10.71
2023-04-19T02:20:08.593Z,10.75
2023-04-19T02:22:35.779Z,10.75
2023-04-19T02:25:02.776Z,10.74
2023-04-19T02:27:29.738Z,10.76
2023-04-19T02:29:56.712Z,10.81
2023-04-19T02:32:23.737Z,10.81
2023-04-19T02:34:50.898Z,10.83
2023-04-19T02:37:18.456Z,10.86
2023-04-19T02:39:46.070Z,10.82
2023-04-19T02:42:13.248Z,10.89
2023-04-19T02:44:40.280Z,10.87
2023-04-19T02:47:08.159Z,10.91
2023-04-19T02:49:37.120Z,10.96
2023-04-19T02:52:04.463Z,10.97
2023-04-19T02:54:33.243Z,10.96
2023-04-19T02:57:01.106Z,11.01
2023-04-19T02:59:28.104Z,10.99
2023-04-19T03:01:55.104Z,10.99
2023-04-19T03:04:22.253Z,11.03
2023-04-19T03:06:49.240Z,11.01
2023-04-19T03:09:16.348Z,11.01
2023-04-19T03:11:43.310Z,11.05
2023-04-19T03:14:10.335Z,11.07
2023-04-19T03:16:38.516Z,11.07
2023-04-19T03:19:05.860Z,11.10
2023-04-19T03:21:32.884Z,11.13
2023-04-19T03:24:00.043Z,11.10
2023-04-19T03:26:27.063Z,11.11
2023-04-19T03:28:54.074Z,11.09
2023-04-19T03:31:21.736Z,11.14
2023-04-19T03:33:48.719Z,11.13
2023-04-19T03:36:16.067Z,11.13
2023-04-19T03:38:44.498Z,11.15
2023-04-19T03:41:27.457Z,11.15
2023-04-19T03:43:54.507Z,11.15
2023-04-19T03:46:21.763Z,11.14
2023-04-19T03:48:48.738Z,11.20
2023-04-19T03:51:16.376Z,11.20
2023-04-19T03:53:43.487Z,11.19
2023-04-19T03:56:10.550Z,11.26
2023-04-19T03:58:37.572Z,11.25
2023-04-19T04:01:05.433Z,11.25
2023-04-19T04:03:33.318Z,11.28
2023-04-19T04:06:00.893Z,11.32
2023-04-19T04:08:27.875Z,11.28
2023-04-19T04:10:55.610Z,11.23
2023-04-19T04:13:22.611Z,11.26
2023-04-19T04:15:49.963Z,11.26
2023-04-19T04:18:17.644Z,11.18
2023-04-19T04:20:45.043Z,11.13
2023-04-19T04:23:11.994Z,11.17
2023-04-19T04:25:39.276Z,11.14
2023-04-19T04:28:09.138Z,11.13
2023-04-19T04:30:37.188Z,11.08
2023-04-19T04:33:04.506Z,11.06
2023-04-19T04:35:31.817Z,11.05
2023-04-19T04:38:00.013Z,11.00
2023-04-19T04:40:27.425Z,10.94
2023-04-19T04:42:54.383Z,10.97
2023-04-19T04:45:21.421Z,10.93
2023-04-19T04:47:48.483Z,10.90
2023-04-19T04:50:15.626Z,10.92
2023-04-19T04:52:42.728Z,10.91
2023-04-19T04:55:09.903Z,10.84
2023-04-19T04:57:37.053Z,10.91
2023-04-19T05:00:06.969Z,10.83
2023-04-19T05:02:34.173Z,10.92
2023-04-19T05:05:01.466Z,10.88
2023-04-19T05:07:28.422Z,10.90
2023-04-19T05:09:55.530Z,10.94
2023-04-19T05:12:22.519Z,10.91
2023-04-19T05:14:49.519Z,10.89
2023-04-19T05:17:16.558Z,10.87
2023-04-19T05:19:43.542Z,10.83
2023-04-19T05:22:10.639Z,10.93
2023-04-19T05:24:37.646Z,10.96
2023-04-19T05:27:04.629Z,10.97
2023-04-19T05:29:32.519Z,10.95
2023-04-19T05:31:59.521Z,10.92
2023-04-19T05:34:26.681Z,10.89
2023-04-19T05:36:53.681Z,10.90
2023-04-19T05:39:20.765Z,10.94
2023-04-19T05:41:48.340Z,10.97
2023-04-19T05:44:15.741Z,10.97
2023-04-19T05:46:43.002Z,12.21
2023-04-19T05:49:09.958Z,13.27
2023-04-19T05:51:36.940Z,14.00
2023-04-19T05:54:04.105Z,14.50
2023-04-19T05:56:31.077Z,14.78
2023-04-19T05:58:58.365Z,14.88
2023-04-19T06:01:25.590Z,15.05
2023-04-19T06:03:54.516Z,15.05
2023-04-19T06:06:24.895Z,15.08
2023-04-19T06:08:54.463Z,15.10
2023-04-19T06:11:28.854Z,15.12
2023-04-19T06:13:56.157Z,15.24
2023-04-19T06:16:23.160Z,15.28
2023-04-19T06:18:50.758Z,15.33
2023-04-19T06:21:17.729Z,15.38
2023-04-19T06:23:44.766Z,15.43
2023-04-19T06:26:11.837Z,15.53
2023-04-19T06:28:38.793Z,15.55
2023-04-19T06:31:05.956Z,15.59
2023-04-19T06:33:33.091Z,15.64
2023-04-19T06:36:00.041Z,15.66
2023-04-19T06:38:27.096Z,15.70
2023-04-19T06:40:54.081Z,15.73
2023-04-19T06:43:21.490Z,15.77
2023-04-19T06:45:48.857Z,15.82
2023-04-19T06:48:15.898Z,15.85
2023-04-19T06:50:42.854Z,15.88
2023-04-19T06:53:09.841Z,15.91
2023-04-19T06:55:36.846Z,15.93
2023-04-19T06:58:04.959Z,15.97
2023-04-19T07:00:31.973Z,15.96
2023-04-19T07:03:00.460Z,15.96
2023-04-19T07:05:28.071Z,16.02
2023-04-19T07:07:55.035Z,16.03
2023-04-19T07:10:22.064Z,16.03
2023-04-19T07:12:49.046Z,16.04
2023-04-19T07:15:17.034Z,16.07
2023-04-19T07:17:44.060Z,16.08
2023-04-19T07:20:11.965Z,16.10
2023-04-19T07:22:39.016Z,16.10
2023-04-19T07:25:06.481Z,16.13
2023-04-19T07:27:33.455Z,16.14
2023-04-19T07:30:00.498Z,16.13
2023-04-19T07:32:27.607Z,16.17
2023-04-19T07:34:54.666Z,16.16
2023-04-19T07:37:21.809Z,16.17
2023-04-19T07:39:48.755Z,16.17
2023-04-19T07:42:15.872Z,16.16
2023-04-19T07:44:42.970Z,16.19
2023-04-19T07:47:09.917Z,16.20
2023-04-19T07:49:37.728Z,16.20
2023-04-19T07:52:07.937Z,16.21
2023-04-19T07:54:35.978Z,16.23
2023-04-19T07:57:03.241Z,16.24
2023-04-19T07:59:30.774Z,16.22
2023-04-19T08:01:57.853Z,16.23
2023-04-19T08:04:25.635Z,16.23
2023-04-19T08:06:53.166Z,16.26
2023-04-19T08:09:20.238Z,16.27
2023-04-19T08:11:47.312Z,16.26
2023-04-19T08:14:28.501Z,16.25
2023-04-19T08:19:29.973Z,16.28
2023-04-19T08:21:57.353Z,16.28
2023-04-19T08:24:24.384Z,16.29
2023-04-19T08:26:54.720Z,16.27
2023-04-19T08:29:22.308Z,16.31
2023-04-19T08:31:50.377Z,16.29
2023-04-19T08:34:17.414Z,16.29
2023-04-19T08:36:56.006Z,16.30
2023-04-19T08:39:33.554Z,16.32
2023-04-19T08:42:13.422Z,16.33
2023-04-19T08:45:22.739Z,16.31
2023-04-19T08:47:56.303Z,16.33
2023-04-19T08:50:34.345Z,16.31
2023-04-19T08:53:20.318Z,16.34
2023-04-19T08:58:28.883Z,16.33
2023-04-19T09:01:12.900Z,16.34
2023-04-19T09:04:00.551Z,16.35
2023-04-19T09:06:37.442Z,16.35
2023-04-19T09:12:00.020Z,16.35
2023-04-19T09:14:29.091Z,16.35
2023-04-19T09:17:17.105Z,16.36
2023-04-19T09:19:50.830Z,16.39
2023-04-19T09:22:18.638Z,16.39
2023-04-19T09:25:22.556Z,16.42
2023-04-19T09:27:36.433Z,16.40
2023-04-19T09:30:05.272Z,16.40
2023-04-19T09:32:49.049Z,16.42
2023-04-19T09:35:16.539Z,16.42
2023-04-19T09:40:24.630Z,16.44
2023-04-19T09:45:29.676Z,16.43
2023-04-19T09:48:07.818Z,16.42
2023-04-19T09:50:46.688Z,16.44
2023-04-19T09:53:22.050Z,16.46
2023-04-19T09:56:00.446Z,16.44
2023-04-19T09:58:34.500Z,16.42
2023-04-19T10:01:15.503Z,16.44
2023-04-19T10:03:47.878Z,16.44
2023-04-19T10:08:50.945Z,16.46
2023-04-19T10:11:22.048Z,16.49
2023-04-19T10:13:53.877Z,16.48
2023-04-19T10:16:21.167Z,16.49
2023-04-19T10:18:50.572Z,16.48
2023-04-19T10:21:19.199Z,16.50
2023-04-19T10:23:47.144Z,16.49
2023-04-19T10:26:14.162Z,16.49
2023-04-19T10:28:42.577Z,16.50
2023-04-19T10:31:13.760Z,16.50
2023-04-19T10:33:42.087Z,16.48
2023-04-19T10:36:14.090Z,16.48
2023-04-19T10:38:55.506Z,16.49
2023-04-19T10:41:23.072Z,16.48
2023-04-19T10:43:56.477Z,16.52
2023-04-19T10:46:25.618Z,16.53
2023-04-19T10:49:02.598Z,16.54
2023-04-19T10:51:38.565Z,16.56
2023-04-19T10:54:10.258Z,16.57
2023-04-19T10:56:38.100Z,16.56
2023-04-19T10:59:08.070Z,16.56
2023-04-19T11:01:43.568Z,16.60
2023-04-19T11:04:15.935Z,16.58
2023-04-19T11:06:55.284Z,16.59
2023-04-19T11:09:26.705Z,16.56
2023-04-19T11:12:01.139Z,16.58
2023-04-19T11:14:33.067Z,16.58
2023-04-19T11:17:03.056Z,16.58
2023-04-19T11:19:30.235Z,16.61
2023-04-19T11:22:00.031Z,16.63
2023-04-19T11:24:27.116Z,16.62
2023-04-19T11:26:57.015Z,16.63
2023-04-19T11:29:25.051Z,16.61
2023-04-19T11:31:52.187Z,16.63
2023-04-19T11:34:23.431Z,16.65
2023-04-19T11:36:53.860Z,16.66
2023-04-19T11:39:21.854Z,16.68
2023-04-19T11:41:48.936Z,16.72
2023-04-19T11:44:22.922Z,16.73
2023-04-19T11:47:01.398Z,16.69
2023-04-19T11:49:31.486Z,16.68
2023-04-19T11:52:00.867Z,16.69
2023-04-19T11:54:29.104Z,16.69
2023-04-19T11:57:03.574Z,16.72
2023-04-19T11:59:32.742Z,16.73
2023-04-19T12:02:09.109Z,16.76
2023-04-19T12:04:37.881Z,16.76
2023-04-19T12:07:06.799Z,16.75
2023-04-19T12:09:36.598Z,16.75
2023-04-19T12:12:04.187Z,16.75
2023-04-19T12:14:31.678Z,16.77
2023-04-19T12:17:13.717Z,16.79
2023-04-19T12:19:47.240Z,16.79
2023-04-19T12:22:17.630Z,16.82
2023-04-19T12:24:44.724Z,16.78
2023-04-19T12:27:12.560Z,16.81
2023-04-19T12:29:39.609Z,16.79
2023-04-19T12:32:06.949Z,16.80
2023-04-19T12:34:33.998Z,16.82
2023-04-19T12:37:01.064Z,16.84
2023-04-19T12:39:28.949Z,16.81
2023-04-19T12:41:56.887Z,16.88
2023-04-19T12:44:24.298Z,16.86
2023-04-19T12:46:51.486Z,16.85
2023-04-19T12:49:20.091Z,16.85
2023-04-19T12:51:47.749Z,16.87
2023-04-19T12:54:16.100Z,16.83
2023-04-19T12:56:43.105Z,16.86
2023-04-19T12:59:10.121Z,16.87
2023-04-19T13:01:37.189Z,16.86
2023-04-19T13:04:04.632Z,16.83
2023-04-19T13:06:31.761Z,16.84
2023-04-19T13:09:01.221Z,16.80
2023-04-19T13:13:55.512Z,16.87
2023-04-19T13:16:23.195Z,16.87
2023-04-19T13:18:52.409Z,16.90
2023-04-19T13:21:19.545Z,16.92
2023-04-19T13:23:46.622Z,16.89
2023-04-19T13:26:14.147Z,16.90
2023-04-19T13:28:42.668Z,16.92
2023-04-19T13:31:09.720Z,16.87
2023-04-19T13:33:37.008Z,16.89
2023-04-19T13:36:04.751Z,16.94
2023-04-19T13:38:31.853Z,16.96
2023-04-19T13:40:59.750Z,17.01
2023-04-19T13:43:26.770Z,17.01
2023-04-19T13:45:54.173Z,16.94
2023-04-19T13:48:21.691Z,16.96
2023-04-19T13:50:50.959Z,16.98
2023-04-19T13:53:18.273Z,17.03
2023-04-19T13:55:45.311Z,17.04
2023-04-19T13:58:12.377Z,17.03
2023-04-19T14:00:39.785Z,17.01
2023-04-19T14:03:07.124Z,17.01
2023-04-19T14:05:34.150Z,16.98
2023-04-19T14:08:01.127Z,17.02
2023-04-19T14:10:28.262Z,17.04
2023-04-19T14:12:55.372Z,17.09
2023-04-19T14:15:23.637Z,17.09
2023-04-19T14:17:51.504Z,17.11
2023-04-19T14:20:19.277Z,17.09
2023-04-19T14:22:46.892Z,17.08
2023-04-19T14:25:17.976Z,17.10
2023-04-19T14:27:45.266Z,17.08
2023-04-19T14:30:12.706Z,17.08
2023-04-19T14:32:39.756Z,17.06
2023-04-19T14:35:08.550Z,17.08
2023-04-19T14:37:35.736Z,17.05
2023-04-19T14:40:03.128Z,17.07
2023-04-19T14:42:30.153Z,17.08
2023-04-19T14:44:58.624Z,17.11
2023-04-19T14:47:25.589Z,17.21
2023-04-19T14:49:52.796Z,17.22
2023-04-19T14:52:20.504Z,17.22
2023-04-19T14:54:47.548Z,17.26
2023-04-19T14:57:14.776Z,17.27
2023-04-19T14:59:41.866Z,17.27
2023-04-19T15:02:10.747Z,19.06
2023-04-19T15:04:40.718Z,18.70
2023-04-19T15:07:08.105Z,18.63
2023-04-19T15:09:35.073Z,18.51
2023-04-19T15:12:02.071Z,18.35
2023-04-19T15:14:29.153Z,18.38
2023-04-19T15:16:56.172Z,18.59
2023-04-19T15:19:23.273Z,18.63
2023-04-19T15:21:50.521Z,18.50
2023-04-19T15:24:17.675Z,18.47
2023-04-19T15:26:44.820Z,18.69
2023-04-19T15:29:11.821Z,18.61
2023-04-19T15:31:39.341Z,18.68
2023-04-19T15:34:06.563Z,18.73
2023-04-19T15:36:33.568Z,18.61
2023-04-19T15:39:00.570Z,18.54
2023-04-19T15:41:27.651Z,18.72
2023-04-19T15:43:54.709Z,18.81
2023-04-19T15:46:21.681Z,18.62
2023-04-19T15:48:48.813Z,18.52
2023-04-19T15:51:16.161Z,18.56
2023-04-19T15:53:43.385Z,18.64
2023-04-19T15:56:10.974Z,18.47
2023-04-19T15:58:38.325Z,18.50
2023-04-19T16:01:11.729Z,18.53
2023-04-19T16:03:39.547Z,18.45
2023-04-19T16:06:07.076Z,18.45
2023-04-19T16:08:34.285Z,18.49
2023-04-19T16:11:01.393Z,18.33
2023-04-19T16:13:30.116Z,18.25
2023-04-19T16:15:58.569Z,18.13
2023-04-19T16:18:25.541Z,18.18
2023-04-19T16:20:54.556Z,18.15
2023-04-19T16:23:21.586Z,18.17
2023-04-19T16:25:48.641Z,18.01
2023-04-19T16:28:16.056Z,18.32
2023-04-19T16:30:45.490Z,18.13
2023-04-19T16:33:12.616Z,18.21
2023-04-19T16:35:39.798Z,18.27
2023-04-19T16:38:07.088Z,18.24
2023-04-19T16:40:34.106Z,18.37
2023-04-19T16:43:01.664Z,18.27
2023-04-19T16:45:28.711Z,18.22
2023-04-19T16:47:55.910Z,18.06
2023-04-19T16:50:23.059Z,17.97
2023-04-19T16:52:50.046Z,17.96
2023-04-19T16:55:17.024Z,17.90
2023-04-19T16:57:44.135Z,17.92
2023-04-19T17:00:12.119Z,17.80
2023-04-19T17:02:39.368Z,17.85
2023-04-19T17:05:07.400Z,17.69
2023-04-19T17:07:34.429Z,17.62
2023-04-19T17:10:01.400Z,17.73
2023-04-19T17:12:28.532Z,17.68
2023-04-19T17:14:55.506Z,17.62
2023-04-19T17:17:22.487Z,17.65
2023-04-19T17:19:49.534Z,17.60
2023-04-19T17:22:16.605Z,17.61
2023-04-19T17:24:43.692Z,17.52
2023-04-19T17:27:10.997Z,17.49
2023-04-19T17:29:38.057Z,17.42
2023-04-19T17:32:06.126Z,17.19
2023-04-19T17:34:35.413Z,17.09
2023-04-19T17:37:03.888Z,17.17
2023-04-19T17:39:30.983Z,17.03
2023-04-19T17:41:57.986Z,17.03
2023-04-19T17:44:25.448Z,17.01
2023-04-19T17:46:52.435Z,16.86
2023-04-19T17:49:21.173Z,16.81
2023-04-19T17:51:48.414Z,16.63
2023-04-19T17:54:16.377Z,16.75
2023-04-19T17:56:43.449Z,16.67
2023-04-19T17:59:10.480Z,16.60
2023-04-19T18:01:38.197Z,16.55
2023-04-19T18:04:05.864Z,16.38
2023-04-19T18:06:33.142Z,16.18
2023-04-19T18:09:00.668Z,16.17
2023-04-19T18:11:28.623Z,16.18
2023-04-19T18:13:56.327Z,16.10
2023-04-19T18:16:23.410Z,15.96
2023-04-19T18:18:50.780Z,15.98
2023-04-19T18:21:18.588Z,15.87
2023-04-19T18:23:45.750Z,15.80
2023-04-19T18:26:12.830Z,15.77
2023-04-19T18:28:40.476Z,15.65
2023-04-19T18:31:09.866Z,15.54
2023-04-19T18:33:36.945Z,15.33
2023-04-19T18:36:05.566Z,15.29
2023-04-19T18:38:32.639Z,15.23
2023-04-19T18:40:59.896Z,15.16
2023-04-19T18:43:28.889Z,15.13
2023-04-19T18:45:57.745Z,15.09
2023-04-19T18:48:29.507Z,15.00
2023-04-19T18:50:57.465Z,14.83
2023-04-19T18:53:28.590Z,14.82
2023-04-19T18:56:00.282Z,14.78
2023-04-19T18:58:28.382Z,14.68
2023-04-19T19:00:56.838Z,14.66
2023-04-19T19:05:55.637Z,14.52
2023-04-19T19:08:22.861Z,14.42
2023-04-19T19:11:13.714Z,14.37
2023-04-19T19:13:36.951Z,14.32
2023-04-19T19:16:05.904Z,14.24
2023-04-19T19:18:32.992Z,14.14
2023-04-19T19:21:00.422Z,14.04
2023-04-19T19:23:35.513Z,13.98
2023-04-19T19:26:03.983Z,13.98
2023-04-19T19:28:30.987Z,13.92
2023-04-19T19:30:58.023Z,13.79
2023-04-19T19:33:28.383Z,13.77
2023-04-19T19:35:55.833Z,13.68
2023-04-19T19:38:22.854Z,13.60
2023-04-19T19:43:19.777Z,13.46
2023-04-19T19:45:46.781Z,13.37
2023-04-19T19:48:13.796Z,13.43
2023-04-19T19:53:11.042Z,13.39
2023-04-19T19:55:38.101Z,13.41
2023-04-19T20:03:06.381Z,13.29
2023-04-19T20:05:34.185Z,13.24
2023-04-19T20:08:09.586Z,13.19
2023-04-19T20:10:38.855Z,13.15
2023-04-19T20:13:08.707Z,13.13
2023-04-19T20:15:37.641Z,13.08
2023-04-19T20:18:06.524Z,13.02
2023-04-19T20:20:33.569Z,12.95
2023-04-19T20:23:00.625Z,12.85
2023-04-19T20:25:27.609Z,12.85
2023-04-19T20:27:55.034Z,12.87
2023-04-19T20:30:22.055Z,12.82
2023-04-19T20:32:50.257Z,12.77
2023-04-19T20:35:18.085Z,12.80
2023-04-19T20:37:46.641Z,12.71
2023-04-19T20:40:16.212Z,12.65
2023-04-19T20:42:44.881Z,12.48
2023-04-19T20:45:12.902Z,12.53
2023-04-19T20:47:40.336Z,12.54
2023-04-19T20:50:08.865Z,12.48
2023-04-19T20:52:35.972Z,12.49
2023-04-19T20:55:03.054Z,12.43
2023-04-19T20:57:30.127Z,12.41
2023-04-19T20:59:57.115Z,12.31
2023-04-19T21:02:24.218Z,12.24
2023-04-19T21:04:51.314Z,12.28
2023-04-19T21:07:18.420Z,12.07
2023-04-19T21:09:45.520Z,12.09
2023-04-19T21:12:12.454Z,12.01
2023-04-19T21:14:39.441Z,11.97
2023-04-19T21:17:06.564Z,12.00
2023-04-19T21:19:33.630Z,11.85
2023-04-19T21:22:01.380Z,11.86
2023-04-19T21:24:28.342Z,11.79
2023-04-19T21:26:55.320Z,11.68
2023-04-19T21:29:22.350Z,11.69
2023-04-19T21:31:49.410Z,11.66
2023-04-19T21:34:16.385Z,11.62
2023-04-19T21:36:43.414Z,11.72
2023-04-19T21:39:10.394Z,11.58
2023-04-19T21:41:38.281Z,11.54
2023-04-19T21:44:05.349Z,11.45
2023-04-19T21:46:33.418Z,11.51
2023-04-19T21:49:00.697Z,11.37
2023-04-19T21:51:27.686Z,11.50
2023-04-19T21:53:54.696Z,11.39
2023-04-19T21:56:21.724Z,11.35
2023-04-19T21:58:48.700Z,11.27
2023-04-19T22:01:16.703Z,11.22
2023-04-19T22:03:45.733Z,11.26
2023-04-19T22:06:13.966Z,11.25
2023-04-19T22:08:42.449Z,11.02
2023-04-19T22:11:09.404Z,11.03
2023-04-19T22:13:37.404Z,10.96
2023-04-19T22:16:04.880Z,10.94
2023-04-19T22:18:34.219Z,10.94
2023-04-19T22:21:01.484Z,10.92
2023-04-19T22:23:28.455Z,10.89
2023-04-19T22:25:55.446Z,10.84
2023-04-19T22:28:22.424Z,10.86
2023-04-19T22:30:51.096Z,10.78
2023-04-19T22:33:18.941Z,10.73
2023-04-19T22:35:46.310Z,10.72
2023-04-19T22:38:13.472Z,10.69
2023-04-19T22:40:40.643Z,10.63
2023-04-19T22:43:07.649Z,10.59
2023-04-19T22:45:34.695Z,10.61
2023-04-19T22:48:03.193Z,10.66
2023-04-19T22:50:30.366Z,10.54
2023-04-19T22:52:57.324Z,10.52
2023-04-19T22:55:24.352Z,10.55
2023-04-19T22:57:51.409Z,10.34
2023-04-19T23:00:18.814Z,10.44
2023-04-19T23:02:46.099Z,10.42
2023-04-19T23:05:13.341Z,10.33
2023-04-19T23:07:42.028Z,10.39
2023-04-19T23:10:10.382Z,10.22
2023-04-19T23:12:38.802Z,10.17
2023-04-19T23:15:07.286Z,10.15
2023-04-19T23:17:34.656Z,10.11
2023-04-19T23:20:01.717Z,10.15
2023-04-19T23:22:28.732Z,10.04
2023-04-19T23:24:56.112Z,10.04
2023-04-19T23:27:23.062Z,10.01
2023-04-19T23:29:49.992Z,9.93
2023-04-19T23:32:18.226Z,9.95
2023-04-19T23:34:45.427Z,9.87
2023-04-19T23:37:12.869Z,9.79
2023-04-19T23:39:39.871Z,9.70
2023-04-19T23:42:07.062Z,9.72
2023-04-19T23:44:34.117Z,9.67
2023-04-19T23:47:02.784Z,9.73
2023-04-19T23:49:30.280Z,9.62
2023-04-19T23:51:57.265Z,9.65
2023-04-19T23:54:26.289Z,9.55
2023-04-19T23:56:53.723Z,9.50
2023-04-19T23:59:20.808Z,9.49
